createdAt,value
2022-09-30T00:00:01.597Z,9.67
2022-09-30T00:00:57.232Z,9.64
2022-09-30T00:01:52.442Z,9.62
2022-09-30T00:02:47.690Z,9.60
2022-09-30T00:03:42.943Z,9.60
2022-09-30T00:04:37.982Z,9.57
2022-09-30T00:05:33.028Z,9.58
2022-09-30T00:06:28.099Z,9.58
2022-09-30T00:07:23.200Z,9.58
2022-09-30T00:08:18.137Z,9.55
2022-09-30T00:09:13.260Z,9.54
2022-09-30T00:10:08.369Z,9.50
2022-09-30T00:11:03.612Z,9.47
2022-09-30T00:11:58.630Z,9.44
2022-09-30T00:12:53.678Z,9.44
2022-09-30T00:13:48.740Z,9.41
2022-09-30T00:14:43.798Z,9.38
2022-09-30T00:15:38.975Z,9.37
2022-09-30T00:16:34.167Z,9.37
2022-09-30T00:17:29.067Z,9.34
2022-09-30T00:18:24.058Z,9.34
2022-09-30T00:19:19.282Z,9.32
2022-09-30T00:20:14.209Z,9.28
2022-09-30T00:21:09.248Z,9.25
2022-09-30T00:22:04.308Z,9.24
2022-09-30T00:22:59.347Z,9.23
2022-09-30T00:23:54.396Z,9.21
2022-09-30T00:24:49.417Z,9.21
2022-09-30T00:25:44.467Z,9.23
2022-09-30T00:26:39.543Z,9.23
2022-09-30T00:27:34.723Z,9.23
2022-09-30T00:28:29.904Z,9.25
2022-09-30T00:29:25.081Z,9.25
2022-09-30T00:30:20.140Z,9.23
2022-09-30T00:31:15.257Z,9.23
2022-09-30T00:32:10.291Z,9.24
2022-09-30T00:33:05.289Z,9.24
2022-09-30T00:34:00.352Z,9.25
2022-09-30T00:34:55.359Z,9.28
2022-09-30T00:35:50.422Z,9.32
2022-09-30T00:36:45.501Z,9.34
2022-09-30T00:37:40.616Z,9.32
2022-09-30T00:38:35.623Z,9.32
2022-09-30T00:39:30.673Z,9.36
2022-09-30T00:40:25.743Z,9.39
2022-09-30T00:41:20.769Z,9.42
2022-09-30T00:42:15.822Z,9.42
2022-09-30T00:43:10.854Z,9.43
2022-09-30T00:44:05.896Z,9.44
2022-09-30T00:45:00.946Z,9.48
2022-09-30T00:45:55.985Z,9.47
2022-09-30T00:46:51.120Z,9.44
2022-09-30T00:47:46.181Z,9.42
2022-09-30T00:48:41.350Z,9.41
2022-09-30T00:49:36.401Z,9.42
2022-09-30T00:50:31.493Z,9.39
2022-09-30T00:51:26.531Z,9.39
2022-09-30T00:52:21.609Z,9.37
2022-09-30T00:53:16.648Z,9.33
2022-09-30T00:54:11.700Z,9.30
2022-09-30T00:55:06.707Z,9.29
2022-09-30T00:56:01.769Z,9.27
2022-09-30T00:56:56.838Z,9.26
2022-09-30T00:57:51.856Z,9.27
2022-09-30T00:58:46.879Z,9.28
2022-09-30T00:59:41.950Z,9.25
2022-09-30T01:00:37.069Z,9.25
2022-09-30T01:01:32.192Z,9.25
2022-09-30T01:02:27.315Z,9.22
2022-09-30T01:03:22.487Z,9.21
2022-09-30T01:04:17.680Z,9.21
2022-09-30T01:05:12.878Z,9.23
2022-09-30T01:06:08.247Z,9.23
2022-09-30T01:07:04.137Z,9.21
2022-09-30T01:07:59.307Z,9.23
2022-09-30T01:08:54.596Z,9.23
2022-09-30T01:09:50.761Z,9.21
2022-09-30T01:10:46.103Z,9.22
2022-09-30T01:11:41.877Z,9.25
2022-09-30T01:12:37.041Z,9.27
2022-09-30T01:13:32.533Z,9.25
2022-09-30T01:14:28.153Z,9.23
2022-09-30T01:15:23.334Z,9.20
2022-09-30T01:16:19.187Z,9.15
2022-09-30T01:17:14.346Z,9.12
2022-09-30T01:18:09.796Z,9.10
2022-09-30T01:19:05.401Z,9.07
2022-09-30T01:20:00.759Z,9.04
2022-09-30T01:20:55.972Z,9.00
2022-09-30T01:21:52.385Z,8.94
2022-09-30T01:22:47.601Z,8.93
2022-09-30T01:23:43.327Z,8.94
2022-09-30T01:24:38.477Z,8.96
2022-09-30T01:25:33.660Z,8.99
2022-09-30T01:26:29.540Z,9.01
2022-09-30T01:27:24.618Z,9.03
2022-09-30T01:28:20.357Z,9.02
2022-09-30T01:29:15.508Z,9.01
2022-09-30T01:30:10.859Z,8.97
2022-09-30T01:31:06.626Z,8.92
2022-09-30T01:32:01.888Z,8.90
2022-09-30T01:32:57.056Z,8.87
2022-09-30T01:33:53.336Z,8.87
2022-09-30T01:34:48.667Z,8.83
2022-09-30T01:35:44.381Z,8.80
2022-09-30T01:36:39.606Z,8.79
2022-09-30T01:37:34.793Z,8.78
2022-09-30T01:38:30.597Z,8.80
2022-09-30T01:39:25.801Z,8.82
2022-09-30T01:40:21.654Z,8.85
2022-09-30T01:41:16.697Z,8.85
2022-09-30T01:42:11.920Z,8.85
2022-09-30T01:43:07.662Z,8.83
2022-09-30T01:44:02.842Z,8.81
2022-09-30T01:44:58.137Z,8.79
2022-09-30T01:45:54.282Z,8.76
2022-09-30T01:46:49.624Z,8.74
2022-09-30T01:47:45.421Z,8.75
2022-09-30T01:48:40.594Z,8.78
2022-09-30T01:49:36.045Z,8.79
2022-09-30T01:50:31.658Z,8.80
2022-09-30T01:51:26.988Z,8.78
2022-09-30T01:52:22.754Z,8.77
2022-09-30T01:53:17.904Z,8.76
2022-09-30T01:54:13.208Z,8.79
2022-09-30T01:55:08.972Z,8.77
2022-09-30T01:56:04.133Z,8.76
2022-09-30T01:56:59.367Z,8.73
2022-09-30T01:57:55.860Z,8.68
2022-09-30T01:58:51.058Z,8.66
2022-09-30T01:59:46.813Z,8.65
2022-09-30T02:00:42.014Z,8.66
2022-09-30T02:01:37.277Z,8.65
2022-09-30T02:02:32.998Z,8.62
2022-09-30T02:03:28.232Z,8.58
2022-09-30T02:04:23.960Z,8.56
2022-09-30T02:05:19.155Z,8.56
2022-09-30T02:06:14.469Z,8.53
2022-09-30T02:07:09.637Z,8.54
2022-09-30T02:08:04.874Z,8.56
2022-09-30T02:09:00.685Z,8.58
2022-09-30T02:09:55.854Z,8.63
2022-09-30T02:10:51.042Z,8.65
2022-09-30T02:11:46.783Z,8.67
2022-09-30T02:12:42.001Z,8.67
2022-09-30T02:13:37.721Z,8.68
2022-09-30T02:14:32.892Z,8.68
2022-09-30T02:15:28.223Z,8.66
2022-09-30T02:16:24.253Z,8.65
2022-09-30T02:17:19.312Z,8.67
2022-09-30T02:18:14.459Z,8.68
2022-09-30T02:19:10.880Z,8.67
2022-09-30T02:20:06.068Z,8.66
2022-09-30T02:21:01.823Z,8.67
2022-09-30T02:21:57.005Z,8.72
2022-09-30T02:22:52.201Z,8.74
2022-09-30T02:23:47.387Z,8.73
2022-09-30T02:24:42.585Z,8.73
2022-09-30T02:25:37.625Z,8.70
2022-09-30T02:26:32.728Z,8.69
2022-09-30T02:27:27.725Z,8.68
2022-09-30T02:28:22.813Z,8.70
2022-09-30T02:29:17.823Z,8.65
2022-09-30T02:30:12.953Z,8.59
2022-09-30T02:31:08.072Z,8.57
2022-09-30T02:32:03.013Z,8.54
2022-09-30T02:33:01.197Z,8.54
2022-09-30T02:33:56.224Z,8.57
2022-09-30T02:34:51.275Z,8.58
2022-09-30T02:35:46.309Z,8.58
2022-09-30T02:36:41.492Z,8.62
2022-09-30T02:37:36.545Z,8.65
2022-09-30T02:38:31.600Z,8.66
2022-09-30T02:39:26.652Z,8.67
2022-09-30T02:40:21.712Z,8.66
2022-09-30T02:41:16.779Z,8.64
2022-09-30T02:42:11.844Z,8.60
2022-09-30T02:43:06.890Z,8.55
2022-09-30T02:44:01.962Z,8.53
2022-09-30T02:44:57.102Z,8.52
2022-09-30T02:45:52.088Z,8.52
2022-09-30T02:46:47.193Z,8.53
2022-09-30T02:47:42.167Z,8.52
2022-09-30T02:48:37.205Z,8.45
2022-09-30T02:49:32.258Z,8.41
2022-09-30T02:50:27.292Z,8.39
2022-09-30T02:51:22.356Z,8.34
2022-09-30T02:52:17.406Z,8.27
2022-09-30T02:53:12.415Z,8.26
2022-09-30T02:54:07.473Z,8.27
2022-09-30T02:55:02.653Z,8.23
2022-09-30T02:55:57.758Z,8.20
2022-09-30T02:56:56.455Z,8.22
2022-09-30T02:57:51.481Z,8.26
2022-09-30T02:58:46.537Z,8.28
2022-09-30T02:59:41.590Z,8.25
2022-09-30T03:00:36.682Z,8.24
2022-09-30T03:01:31.840Z,8.19
2022-09-30T03:02:26.795Z,8.16
2022-09-30T03:03:21.885Z,8.12
2022-09-30T03:04:16.974Z,8.10
2022-09-30T03:05:12.023Z,8.08
2022-09-30T03:06:07.111Z,8.08
2022-09-30T03:07:02.175Z,8.11
2022-09-30T03:07:57.278Z,8.13
2022-09-30T03:08:52.335Z,8.15
2022-09-30T03:09:47.730Z,8.15
2022-09-30T03:10:43.361Z,8.16
2022-09-30T03:11:38.532Z,8.18
2022-09-30T03:12:34.325Z,8.19
2022-09-30T03:13:29.567Z,8.18
2022-09-30T03:14:24.883Z,8.16
2022-09-30T03:15:20.507Z,8.17
2022-09-30T03:16:15.768Z,8.22
2022-09-30T03:17:10.980Z,8.21
2022-09-30T03:18:07.396Z,8.19
2022-09-30T03:19:02.626Z,8.18
2022-09-30T03:19:58.364Z,8.19
2022-09-30T03:20:53.530Z,8.19
2022-09-30T03:21:48.736Z,8.15
2022-09-30T03:22:44.533Z,8.11
2022-09-30T03:23:39.748Z,8.07
2022-09-30T03:24:35.462Z,8.06
2022-09-30T03:25:30.634Z,8.06
2022-09-30T03:26:26.073Z,8.06
2022-09-30T03:27:21.822Z,8.05
2022-09-30T03:28:17.052Z,8.08
2022-09-30T03:29:12.207Z,8.14
2022-09-30T03:30:08.637Z,8.14
2022-09-30T03:31:03.873Z,8.14
2022-09-30T03:31:59.590Z,8.15
2022-09-30T03:32:54.787Z,8.17
2022-09-30T03:33:50.014Z,8.14
2022-09-30T03:34:45.905Z,8.10
2022-09-30T03:35:41.100Z,8.05
2022-09-30T03:36:36.962Z,8.04
2022-09-30T03:37:32.131Z,8.08
2022-09-30T03:38:27.486Z,8.10
2022-09-30T03:39:23.320Z,8.11
2022-09-30T03:40:18.458Z,8.14
2022-09-30T03:41:13.750Z,8.16
2022-09-30T03:42:09.922Z,8.17
2022-09-30T03:43:05.130Z,8.16
2022-09-30T03:44:00.937Z,8.15
2022-09-30T03:44:56.128Z,8.13
2022-09-30T03:45:51.586Z,8.11
2022-09-30T03:46:47.281Z,8.10
2022-09-30T03:47:42.469Z,8.11
2022-09-30T03:48:38.221Z,8.11
2022-09-30T03:49:33.420Z,8.09
2022-09-30T03:50:28.743Z,8.07
2022-09-30T03:51:24.375Z,8.04
2022-09-30T03:52:19.563Z,8.03
2022-09-30T03:53:14.752Z,8.01
2022-09-30T03:54:11.007Z,8.01
2022-09-30T03:55:06.411Z,8.02
2022-09-30T03:56:01.577Z,8.01
2022-09-30T03:56:56.762Z,8.01
2022-09-30T03:57:52.523Z,7.98
2022-09-30T03:58:47.723Z,7.96
2022-09-30T03:59:43.731Z,7.94
2022-09-30T04:00:38.855Z,7.90
2022-09-30T04:01:34.233Z,7.87
2022-09-30T04:02:29.852Z,7.86
2022-09-30T04:03:25.019Z,7.87
2022-09-30T04:04:20.200Z,7.87
2022-09-30T04:05:16.502Z,7.85
2022-09-30T04:06:11.701Z,7.84
2022-09-30T04:07:07.450Z,7.83
2022-09-30T04:08:02.598Z,7.82
2022-09-30T04:08:57.886Z,7.82
2022-09-30T04:09:53.626Z,7.81
2022-09-30T04:10:48.871Z,7.79
2022-09-30T04:11:44.616Z,7.76
2022-09-30T04:12:39.778Z,7.72
2022-09-30T04:13:34.932Z,7.74
2022-09-30T04:14:30.255Z,7.75
2022-09-30T04:15:25.575Z,7.73
2022-09-30T04:16:20.712Z,7.74
2022-09-30T04:17:15.916Z,7.72
2022-09-30T04:18:11.679Z,7.73
2022-09-30T04:19:06.827Z,7.73
2022-09-30T04:20:02.316Z,7.72
2022-09-30T04:20:57.946Z,7.70
2022-09-30T04:21:53.123Z,7.67
2022-09-30T04:22:48.335Z,7.66
2022-09-30T04:23:43.505Z,7.66
2022-09-30T04:24:38.566Z,7.60
2022-09-30T04:25:33.590Z,7.55
2022-09-30T04:26:28.653Z,7.51
2022-09-30T04:27:23.690Z,7.48
2022-09-30T04:28:18.758Z,7.45
2022-09-30T04:29:13.895Z,7.43
2022-09-30T04:30:08.936Z,7.42
2022-09-30T04:31:04.107Z,7.44
2022-09-30T04:31:59.100Z,7.46
2022-09-30T04:32:54.061Z,7.47
2022-09-30T04:33:49.111Z,7.46
2022-09-30T04:34:44.478Z,7.48
2022-09-30T04:35:39.554Z,7.47
2022-09-30T04:36:34.729Z,7.48
2022-09-30T04:37:29.947Z,7.47
2022-09-30T04:38:25.125Z,7.46
2022-09-30T04:39:20.348Z,7.51
2022-09-30T04:40:19.188Z,7.55
2022-09-30T04:41:14.506Z,7.51
2022-09-30T04:42:09.644Z,7.51
2022-09-30T04:43:04.842Z,7.50
2022-09-30T04:44:00.166Z,7.42
2022-09-30T04:44:55.345Z,7.37
2022-09-30T04:45:50.634Z,7.31
2022-09-30T04:46:45.782Z,7.23
2022-09-30T04:47:41.124Z,7.16
2022-09-30T04:48:36.222Z,7.16
2022-09-30T04:49:31.430Z,7.17
2022-09-30T04:50:26.683Z,7.14
2022-09-30T04:51:21.892Z,7.15
2022-09-30T04:52:17.020Z,7.20
2022-09-30T04:53:12.212Z,7.24
2022-09-30T04:54:07.519Z,7.25
2022-09-30T04:55:02.721Z,7.28
2022-09-30T04:55:57.921Z,7.32
2022-09-30T04:56:53.099Z,7.33
2022-09-30T04:57:48.283Z,7.31
2022-09-30T04:58:43.690Z,7.32
2022-09-30T04:59:38.840Z,7.33
2022-09-30T05:00:34.181Z,7.34
2022-09-30T05:01:29.190Z,7.36
2022-09-30T05:02:24.261Z,7.38
2022-09-30T05:03:19.279Z,7.40
2022-09-30T05:04:14.630Z,7.38
2022-09-30T05:05:09.648Z,7.36
2022-09-30T05:06:04.676Z,7.33
2022-09-30T05:06:59.671Z,7.29
2022-09-30T05:07:54.764Z,7.29
2022-09-30T05:08:49.858Z,7.29
2022-09-30T05:09:45.200Z,7.29
2022-09-30T05:10:40.242Z,7.27
2022-09-30T05:11:35.397Z,7.28
2022-09-30T05:12:30.393Z,7.25
2022-09-30T05:13:25.349Z,7.24
2022-09-30T05:14:20.443Z,7.22
2022-09-30T05:15:15.540Z,7.20
2022-09-30T05:16:10.672Z,7.19
2022-09-30T05:17:05.617Z,7.18
2022-09-30T05:18:00.774Z,7.18
2022-09-30T05:18:55.800Z,7.18
2022-09-30T05:19:50.999Z,7.18
2022-09-30T05:20:46.277Z,7.19
2022-09-30T05:21:41.640Z,7.17
2022-09-30T05:22:36.956Z,7.10
2022-09-30T05:23:32.209Z,7.08
2022-09-30T05:24:27.509Z,7.08
2022-09-30T05:25:22.776Z,7.11
2022-09-30T05:26:18.126Z,7.11
2022-09-30T05:27:13.473Z,7.10
2022-09-30T05:28:08.817Z,7.10
2022-09-30T05:29:04.282Z,7.10
2022-09-30T05:29:59.550Z,7.04
2022-09-30T05:30:54.880Z,6.99
2022-09-30T05:31:50.327Z,6.99
2022-09-30T05:32:45.654Z,6.99
2022-09-30T05:33:41.007Z,7.01
2022-09-30T05:34:37.062Z,6.99
2022-09-30T05:35:32.405Z,6.97
2022-09-30T05:36:27.802Z,6.96
2022-09-30T05:37:23.152Z,7.00
2022-09-30T05:38:18.495Z,7.01
2022-09-30T05:39:13.625Z,6.96
2022-09-30T05:40:08.558Z,6.94
2022-09-30T05:41:03.650Z,6.95
2022-09-30T05:41:58.722Z,6.96
2022-09-30T05:42:53.661Z,6.96
2022-09-30T05:43:48.738Z,6.97
2022-09-30T05:44:43.838Z,6.97
2022-09-30T05:45:38.930Z,6.92
2022-09-30T05:46:34.206Z,6.88
2022-09-30T05:47:29.016Z,6.87
2022-09-30T05:48:24.114Z,6.85
2022-09-30T05:49:19.205Z,6.84
2022-09-30T05:50:14.276Z,6.87
2022-09-30T05:51:09.367Z,6.91
2022-09-30T05:52:06.244Z,6.93
2022-09-30T05:53:01.642Z,6.93
2022-09-30T05:53:57.127Z,6.98
2022-09-30T05:54:52.480Z,7.00
2022-09-30T05:55:47.843Z,7.00
2022-09-30T05:56:43.209Z,7.04
2022-09-30T05:57:38.546Z,7.08
2022-09-30T05:58:33.913Z,7.10
2022-09-30T05:59:29.383Z,7.13
2022-09-30T06:00:25.103Z,7.13
2022-09-30T06:01:21.454Z,7.13
2022-09-30T06:02:17.020Z,7.16
2022-09-30T06:03:12.385Z,7.17
2022-09-30T06:04:07.712Z,7.17
2022-09-30T06:05:03.141Z,7.16
2022-09-30T06:05:58.664Z,7.21
2022-09-30T06:06:54.060Z,7.29
2022-09-30T06:07:49.590Z,7.31
2022-09-30T06:08:44.219Z,7.33
2022-09-30T06:09:39.255Z,7.33
2022-09-30T06:10:34.293Z,7.35
2022-09-30T06:11:29.357Z,7.37
2022-09-30T06:12:24.505Z,7.39
2022-09-30T06:13:19.599Z,7.40
2022-09-30T06:14:14.577Z,7.37
2022-09-30T06:15:09.707Z,7.35
2022-09-30T06:16:04.799Z,7.35
2022-09-30T06:16:59.818Z,7.34
2022-09-30T06:17:54.950Z,7.33
2022-09-30T06:18:49.939Z,7.30
2022-09-30T06:19:44.980Z,7.27
2022-09-30T06:20:40.005Z,7.21
2022-09-30T06:21:34.976Z,7.16
2022-09-30T06:22:30.100Z,7.11
2022-09-30T06:23:25.382Z,7.14
2022-09-30T06:24:20.992Z,7.19
2022-09-30T06:25:16.052Z,7.22
2022-09-30T06:26:11.124Z,7.30
2022-09-30T06:27:06.190Z,7.38
2022-09-30T06:28:02.722Z,7.42
2022-09-30T06:28:57.772Z,7.42
2022-09-30T06:29:52.885Z,7.42
2022-09-30T06:30:48.058Z,7.37
2022-09-30T06:31:43.226Z,7.33
2022-09-30T06:32:38.248Z,7.36
2022-09-30T06:33:33.282Z,7.39
2022-09-30T06:34:28.363Z,7.38
2022-09-30T06:35:23.378Z,7.36
2022-09-30T06:36:18.438Z,7.37
2022-09-30T06:37:13.489Z,7.40
2022-09-30T06:38:09.331Z,7.39
2022-09-30T06:39:04.768Z,7.42
2022-09-30T06:40:00.263Z,7.45
2022-09-30T06:40:55.846Z,7.48
2022-09-30T06:41:51.318Z,7.46
2022-09-30T06:42:46.732Z,7.44
2022-09-30T06:43:49.026Z,7.40
2022-09-30T06:44:48.653Z,7.39
2022-09-30T06:45:34.301Z,7.40
2022-09-30T06:46:31.349Z,7.44
2022-09-30T06:47:25.906Z,7.44
2022-09-30T06:48:30.844Z,7.43
2022-09-30T06:49:16.060Z,7.43
2022-09-30T06:50:19.582Z,7.46
2022-09-30T06:51:10.700Z,7.44
2022-09-30T06:52:05.173Z,7.43
2022-09-30T06:53:00.669Z,7.46
2022-09-30T06:53:56.127Z,8.07
2022-09-30T06:54:51.604Z,9.01
2022-09-30T06:55:47.052Z,9.61
2022-09-30T06:56:42.484Z,10.06
2022-09-30T06:57:38.087Z,10.40
2022-09-30T06:58:33.430Z,10.49
2022-09-30T06:59:28.919Z,10.78
2022-09-30T07:00:24.417Z,11.15
2022-09-30T07:01:19.934Z,11.19
2022-09-30T07:02:15.623Z,11.15
2022-09-30T07:03:10.938Z,11.36
2022-09-30T07:04:06.427Z,11.28
2022-09-30T07:05:01.460Z,10.93
2022-09-30T07:05:56.616Z,10.61
2022-09-30T07:06:51.535Z,10.26
2022-09-30T07:07:46.568Z,9.82
2022-09-30T07:08:41.796Z,9.38
2022-09-30T07:09:36.984Z,9.10
2022-09-30T07:10:31.988Z,8.88
2022-09-30T07:11:26.982Z,8.64
2022-09-30T07:12:21.981Z,8.47
2022-09-30T07:13:17.095Z,8.35
2022-09-30T07:14:12.761Z,8.26
2022-09-30T07:15:12.813Z,8.20
2022-09-30T07:16:03.897Z,8.13
2022-09-30T07:16:57.897Z,8.09
2022-09-30T07:17:53.895Z,8.02
2022-09-30T07:18:49.366Z,7.91
2022-09-30T07:19:45.032Z,7.79
2022-09-30T07:20:40.453Z,7.71
2022-09-30T07:21:35.904Z,7.67
2022-09-30T07:22:31.556Z,7.67
2022-09-30T07:23:27.178Z,7.65
2022-09-30T07:24:21.752Z,7.59
2022-09-30T07:25:16.767Z,7.64
2022-09-30T07:26:11.829Z,7.68
2022-09-30T07:27:06.877Z,7.67
2022-09-30T07:28:01.961Z,7.72
2022-09-30T07:28:57.142Z,7.79
2022-09-30T07:30:48.116Z,7.82
2022-09-30T07:31:42.313Z,7.85
2022-09-30T07:32:37.981Z,7.88
2022-09-30T07:33:32.498Z,7.86
2022-09-30T07:34:27.885Z,7.82
2022-09-30T07:35:23.351Z,7.82
2022-09-30T07:36:19.074Z,7.78
2022-09-30T07:37:14.417Z,7.75
2022-09-30T07:38:09.890Z,7.77
2022-09-30T07:39:06.121Z,7.78
2022-09-30T07:40:00.954Z,7.76
2022-09-30T07:40:56.406Z,7.76
2022-09-30T07:41:51.889Z,7.79
2022-09-30T07:42:47.314Z,7.81
2022-09-30T07:43:42.812Z,7.82
2022-09-30T07:44:38.201Z,7.84
2022-09-30T07:45:33.831Z,7.88
2022-09-30T07:46:28.867Z,7.89
2022-09-30T07:47:23.930Z,7.89
2022-09-30T07:48:18.951Z,7.89
2022-09-30T07:49:14.081Z,7.90
2022-09-30T07:50:09.025Z,7.92
2022-09-30T07:51:04.089Z,7.96
2022-09-30T07:51:59.163Z,8.00
2022-09-30T07:52:56.759Z,8.00
2022-09-30T07:53:51.936Z,7.99
2022-09-30T07:54:50.543Z,8.02
2022-09-30T07:55:41.846Z,8.02
2022-09-30T07:56:51.564Z,8.00
2022-09-30T07:57:32.946Z,8.00
2022-09-30T07:58:27.093Z,8.03
2022-09-30T07:59:22.250Z,8.05
2022-09-30T08:00:41.052Z,8.01
2022-09-30T08:01:14.822Z,7.93
2022-09-30T08:02:09.265Z,7.91
2022-09-30T08:03:04.544Z,7.90
2022-09-30T08:04:00.011Z,7.88
2022-09-30T08:04:55.642Z,7.90
2022-09-30T08:05:52.349Z,7.92
2022-09-30T08:06:47.827Z,7.95
2022-09-30T08:07:43.306Z,7.99
2022-09-30T08:08:38.743Z,8.02
2022-09-30T08:09:34.312Z,8.04
2022-09-30T08:10:29.704Z,8.05
2022-09-30T08:11:25.311Z,8.09
2022-09-30T08:12:20.809Z,8.14
2022-09-30T08:13:17.380Z,8.09
2022-09-30T08:14:12.985Z,7.96
2022-09-30T08:15:08.441Z,7.93
2022-09-30T08:16:03.936Z,7.97
2022-09-30T08:16:59.391Z,7.91
2022-09-30T08:17:54.858Z,7.82
2022-09-30T08:18:50.747Z,7.74
2022-09-30T08:19:45.778Z,7.75
2022-09-30T08:20:41.218Z,7.82
2022-09-30T08:21:36.686Z,7.90
2022-09-30T08:22:31.740Z,7.98
2022-09-30T08:23:26.776Z,8.16
2022-09-30T08:24:22.137Z,8.37
2022-09-30T08:25:16.978Z,8.48
2022-09-30T08:26:12.147Z,8.55
2022-09-30T08:27:07.287Z,8.59
2022-09-30T08:28:02.282Z,8.63
2022-09-30T08:28:59.860Z,8.72
2022-09-30T08:29:57.341Z,8.81
2022-09-30T08:30:50.704Z,8.79
2022-09-30T08:31:44.953Z,8.75
2022-09-30T08:32:40.764Z,8.69
2022-09-30T08:33:36.200Z,8.67
2022-09-30T08:34:31.650Z,8.65
2022-09-30T08:35:27.067Z,8.64
2022-09-30T08:36:22.782Z,8.64
2022-09-30T08:37:18.180Z,8.59
2022-09-30T08:38:13.574Z,8.54
2022-09-30T08:39:09.156Z,8.50
2022-09-30T08:40:04.444Z,8.43
2022-09-30T08:40:59.831Z,8.42
2022-09-30T08:41:55.258Z,8.44
2022-09-30T08:42:55.395Z,8.42
2022-09-30T08:43:47.179Z,8.42
2022-09-30T08:44:41.703Z,8.44
2022-09-30T08:45:36.670Z,8.46
2022-09-30T08:46:31.841Z,8.42
2022-09-30T08:47:26.764Z,8.38
2022-09-30T08:48:21.849Z,8.32
2022-09-30T08:49:16.994Z,8.31
2022-09-30T08:50:12.019Z,8.35
2022-09-30T08:51:07.065Z,8.40
2022-09-30T08:52:04.840Z,8.43
2022-09-30T08:53:00.119Z,8.47
2022-09-30T08:53:55.171Z,8.51
2022-09-30T08:54:50.230Z,8.56
2022-09-30T08:55:45.253Z,8.55
2022-09-30T08:56:40.283Z,8.54
2022-09-30T08:57:35.366Z,8.58
2022-09-30T08:58:30.420Z,8.57
2022-09-30T08:59:25.896Z,8.53
2022-09-30T09:00:21.368Z,8.55
2022-09-30T09:01:16.751Z,8.56
2022-09-30T09:02:16.484Z,8.56
2022-09-30T09:03:08.528Z,8.58
2022-09-30T09:04:02.896Z,8.58
2022-09-30T09:04:58.480Z,8.58
2022-09-30T09:05:53.931Z,8.55
2022-09-30T09:06:49.400Z,8.57
2022-09-30T09:07:44.853Z,8.61
2022-09-30T09:08:40.357Z,8.66
2022-09-30T09:09:35.716Z,8.68
2022-09-30T09:10:30.729Z,8.65
2022-09-30T09:11:25.753Z,8.65
2022-09-30T09:12:20.968Z,8.64
2022-09-30T09:13:16.032Z,8.67
2022-09-30T09:14:11.075Z,8.70
2022-09-30T09:15:06.155Z,8.70
2022-09-30T09:16:01.192Z,8.72
2022-09-30T09:16:56.306Z,8.64
2022-09-30T09:18:18.300Z,8.57
2022-09-30T09:18:47.439Z,8.54
2022-09-30T09:19:41.430Z,8.56
2022-09-30T09:20:36.518Z,8.62
2022-09-30T09:21:32.203Z,8.68
2022-09-30T09:22:27.378Z,8.74
2022-09-30T09:23:22.857Z,8.82
2022-09-30T09:24:18.307Z,8.87
2022-09-30T09:25:13.786Z,8.91
2022-09-30T09:26:09.384Z,8.93
2022-09-30T09:27:04.834Z,8.96
2022-09-30T09:28:00.356Z,8.99
2022-09-30T09:28:55.669Z,9.05
2022-09-30T09:29:51.183Z,9.11
2022-09-30T09:30:46.652Z,9.09
2022-09-30T09:31:42.148Z,9.07
2022-09-30T09:32:37.640Z,9.12
2022-09-30T09:33:33.089Z,9.13
2022-09-30T09:34:28.172Z,9.01
2022-09-30T09:35:23.104Z,8.81
2022-09-30T09:36:18.200Z,8.80
2022-09-30T09:37:13.231Z,8.84
2022-09-30T09:38:08.268Z,8.91
2022-09-30T09:39:03.324Z,8.98
2022-09-30T09:40:02.945Z,9.01
2022-09-30T09:40:54.492Z,9.03
2022-09-30T09:41:48.826Z,8.99
2022-09-30T09:42:43.609Z,8.99
2022-09-30T09:43:38.723Z,9.01
2022-09-30T09:44:33.699Z,8.98
2022-09-30T09:45:32.648Z,8.98
2022-09-30T09:46:27.692Z,8.98
2022-09-30T09:47:22.664Z,8.99
2022-09-30T09:48:17.624Z,9.04
2022-09-30T09:49:12.850Z,9.09
2022-09-30T09:50:07.863Z,9.12
2022-09-30T09:51:02.951Z,9.12
2022-09-30T09:51:58.097Z,9.07
2022-09-30T09:52:53.323Z,9.13
2022-09-30T09:53:48.826Z,9.08
2022-09-30T09:54:45.166Z,9.07
2022-09-30T09:55:40.666Z,9.09
2022-09-30T09:56:36.580Z,9.08
2022-09-30T09:57:32.169Z,9.13
2022-09-30T09:58:27.658Z,9.22
2022-09-30T09:59:23.631Z,9.30
2022-09-30T10:00:18.909Z,9.37
2022-09-30T10:01:14.836Z,9.45
2022-09-30T10:02:10.283Z,9.54
2022-09-30T10:03:05.777Z,9.65
2022-09-30T10:04:01.564Z,9.64
2022-09-30T10:04:56.971Z,9.60
2022-09-30T10:05:52.466Z,9.63
2022-09-30T10:06:48.736Z,9.68
2022-09-30T10:07:44.214Z,9.74
2022-09-30T10:08:40.179Z,9.72
2022-09-30T10:09:35.582Z,9.65
2022-09-30T10:10:31.067Z,9.65
2022-09-30T10:11:26.932Z,9.64
2022-09-30T10:12:22.453Z,9.60
2022-09-30T10:13:18.206Z,9.57
2022-09-30T10:14:13.597Z,9.52
2022-09-30T10:15:08.984Z,9.46
2022-09-30T10:16:04.972Z,9.39
2022-09-30T10:17:00.268Z,9.33
2022-09-30T10:17:55.827Z,9.28
2022-09-30T10:18:52.047Z,9.32
2022-09-30T10:19:47.650Z,9.39
2022-09-30T10:20:43.481Z,9.36
2022-09-30T10:21:38.894Z,9.42
2022-09-30T10:22:34.402Z,9.51
2022-09-30T10:23:30.210Z,9.58
2022-09-30T10:24:25.697Z,9.66
2022-09-30T10:25:21.752Z,9.67
2022-09-30T10:26:17.028Z,9.67
2022-09-30T10:27:12.539Z,9.70
2022-09-30T10:28:08.448Z,9.76
2022-09-30T10:29:03.805Z,9.80
2022-09-30T10:29:59.317Z,9.85
2022-09-30T10:30:55.534Z,9.92
2022-09-30T10:31:51.992Z,9.96
2022-09-30T10:32:46.831Z,9.91
2022-09-30T10:33:42.401Z,9.88
2022-09-30T10:34:37.926Z,9.88
2022-09-30T10:35:33.721Z,9.88
2022-09-30T10:36:29.277Z,9.80
2022-09-30T10:37:25.054Z,9.78
2022-09-30T10:38:20.487Z,9.77
2022-09-30T10:39:16.029Z,9.78
2022-09-30T10:40:11.837Z,9.77
2022-09-30T10:41:07.263Z,9.76
2022-09-30T10:42:02.759Z,9.67
2022-09-30T10:43:01.555Z,9.60
2022-09-30T10:43:57.109Z,9.65
2022-09-30T10:44:52.738Z,9.67
2022-09-30T10:46:01.501Z,9.69
2022-09-30T10:46:44.928Z,9.74
2022-09-30T10:47:39.126Z,9.81
2022-09-30T10:48:34.281Z,9.87
2022-09-30T10:49:29.341Z,9.95
2022-09-30T10:50:24.408Z,9.97
2022-09-30T10:51:19.415Z,9.96
2022-09-30T10:52:14.630Z,9.93
2022-09-30T10:53:09.720Z,9.79
2022-09-30T10:54:04.853Z,9.71
2022-09-30T10:55:09.093Z,9.67
2022-09-30T10:56:02.509Z,9.53
2022-09-30T10:56:57.238Z,9.46
2022-09-30T10:57:52.681Z,9.45
2022-09-30T10:58:48.227Z,9.48
2022-09-30T10:59:43.642Z,9.50
2022-09-30T11:00:39.225Z,9.50
2022-09-30T11:01:35.986Z,9.50
2022-09-30T11:02:31.497Z,9.50
2022-09-30T11:03:27.116Z,9.50
2022-09-30T11:04:22.719Z,9.51
2022-09-30T11:05:18.088Z,9.53
2022-09-30T11:06:13.545Z,9.47
2022-09-30T11:07:10.269Z,9.46
2022-09-30T11:08:05.609Z,9.49
2022-09-30T11:09:01.049Z,9.47
2022-09-30T11:09:56.566Z,9.51
2022-09-30T11:10:51.766Z,9.54
2022-09-30T11:11:46.817Z,9.58
2022-09-30T11:12:41.891Z,9.61
2022-09-30T11:13:36.996Z,9.67
2022-09-30T11:14:32.078Z,9.75
2022-09-30T11:15:27.152Z,9.78
2022-09-30T11:16:22.340Z,9.79
2022-09-30T11:17:21.889Z,9.78
2022-09-30T11:18:13.399Z,9.75
2022-09-30T11:19:07.508Z,9.74
2022-09-30T11:20:02.640Z,9.70
2022-09-30T11:20:57.598Z,9.69
2022-09-30T11:21:52.710Z,9.72
2022-09-30T11:22:47.664Z,9.67
2022-09-30T11:23:42.718Z,9.64
2022-09-30T11:24:38.076Z,9.66
2022-09-30T11:25:33.829Z,9.69
2022-09-30T11:26:29.576Z,9.64
2022-09-30T11:27:24.703Z,9.63
2022-09-30T11:28:21.116Z,9.65
2022-09-30T11:29:16.592Z,9.66
2022-09-30T11:30:12.507Z,9.66
2022-09-30T11:31:07.942Z,9.65
2022-09-30T11:32:03.413Z,9.69
2022-09-30T11:32:59.204Z,9.71
2022-09-30T11:33:54.643Z,9.77
2022-09-30T11:34:50.107Z,9.80
2022-09-30T11:35:46.472Z,9.83
2022-09-30T11:36:43.127Z,9.87
2022-09-30T11:37:37.819Z,9.92
2022-09-30T11:38:33.305Z,9.96
2022-09-30T11:39:28.797Z,9.98
2022-09-30T11:40:24.640Z,9.97
2022-09-30T11:41:20.050Z,9.93
2022-09-30T11:42:15.911Z,9.84
2022-09-30T11:43:11.253Z,9.80
2022-09-30T11:44:06.719Z,9.79
2022-09-30T11:45:02.602Z,9.81
2022-09-30T11:45:58.024Z,9.84
2022-09-30T11:46:53.575Z,9.82
2022-09-30T11:47:49.721Z,9.78
2022-09-30T11:48:45.181Z,9.75
2022-09-30T11:49:41.106Z,9.76
2022-09-30T11:50:36.703Z,9.80
2022-09-30T11:51:32.254Z,9.84
2022-09-30T11:52:27.905Z,9.89
2022-09-30T11:53:23.405Z,9.87
2022-09-30T11:54:19.306Z,9.89
2022-09-30T11:55:15.600Z,9.91
2022-09-30T11:56:10.066Z,9.95
2022-09-30T11:57:05.790Z,10.03
2022-09-30T11:58:11.977Z,10.10
2022-09-30T11:58:57.642Z,10.15
2022-09-30T11:59:52.010Z,10.18
2022-09-30T12:00:47.893Z,10.22
2022-09-30T12:01:43.405Z,10.24
2022-09-30T12:02:38.768Z,10.25
2022-09-30T12:03:35.463Z,10.24
2022-09-30T12:04:30.710Z,10.22
2022-09-30T12:05:26.549Z,10.18
2022-09-30T12:06:21.997Z,10.19
2022-09-30T12:07:17.449Z,10.21
2022-09-30T12:08:13.319Z,10.25
2022-09-30T12:09:08.740Z,10.26
2022-09-30T12:10:04.502Z,10.26
2022-09-30T12:10:59.940Z,10.29
2022-09-30T12:11:55.559Z,10.35
2022-09-30T12:12:51.272Z,10.36
2022-09-30T12:13:46.696Z,10.35
2022-09-30T12:14:42.101Z,10.31
2022-09-30T12:15:37.699Z,10.32
2022-09-30T12:16:33.731Z,10.37